createdAt,value
2022-08-26T00:02:19.371Z,100434.06
2022-08-26T00:04:48.628Z,100429.72
2022-08-26T00:07:16.237Z,100434.97
2022-08-26T00:09:47.310Z,100434.09
2022-08-26T00:12:15.326Z,100428.84
2022-08-26T00:14:42.910Z,100438.47
2022-08-26T00:17:10.566Z,100434.97
2022-08-26T00:19:38.501Z,100430.63
2022-08-26T00:22:12.321Z,100435.81
2022-08-26T00:24:39.856Z,100437.59
2022-08-26T00:27:15.587Z,100430.63
2022-08-26T00:29:43.268Z,100433.25
2022-08-26T00:32:12.647Z,100428.88
2022-08-26T00:34:41.954Z,100436.75
2022-08-26T00:37:13.410Z,100430.66
2022-08-26T00:39:46.206Z,100438.47
2022-08-26T00:42:14.043Z,100439.41
2022-08-26T00:44:41.579Z,100442.03
2022-08-26T00:47:31.052Z,100449.00
2022-08-26T00:50:02.411Z,100450.72
2022-08-26T00:52:30.969Z,100442.03
2022-08-26T00:55:04.998Z,100442.03
2022-08-26T00:57:34.434Z,100448.16
2022-08-26T01:00:07.493Z,100450.78
2022-08-26T01:02:36.286Z,100444.69
2022-08-26T01:05:06.017Z,100441.19
2022-08-26T01:07:34.809Z,100446.44
2022-08-26T01:12:40.139Z,100447.28
2022-08-26T01:15:11.278Z,100433.34
2022-08-26T01:17:39.505Z,100434.22
2022-08-26T01:20:19.173Z,100429.84
2022-08-26T01:22:50.479Z,100443.81
2022-08-26T01:25:21.304Z,100436.84
2022-08-26T01:27:49.665Z,100438.56
2022-08-26T01:30:19.214Z,100439.47
2022-08-26T01:32:49.075Z,100433.38
2022-08-26T01:35:16.684Z,100436.00
2022-08-26T01:37:48.186Z,100438.59
2022-08-26T01:40:21.989Z,100433.38
2022-08-26T01:42:50.358Z,100430.75
2022-08-26T01:45:30.864Z,100442.09
2022-08-26T01:48:01.263Z,100438.63
2022-08-26T01:50:33.926Z,100439.50
2022-08-26T01:53:06.861Z,100435.13
2022-08-26T01:55:37.468Z,100443.00
2022-08-26T01:58:08.357Z,100437.75
2022-08-26T02:00:37.154Z,100436.00
2022-08-26T02:03:17.502Z,100442.97
2022-08-26T02:05:51.392Z,100449.97
2022-08-26T02:08:24.914Z,100448.22
2022-08-26T02:10:54.711Z,100446.47
2022-08-26T02:13:25.541Z,100442.13
2022-08-26T02:15:54.264Z,100446.47
2022-08-26T02:18:22.867Z,100449.97
2022-08-26T02:20:56.450Z,100443.84
2022-08-26T02:23:25.043Z,100449.09
2022-08-26T02:26:19.382Z,100438.63
2022-08-26T02:29:05.098Z,100432.53
2022-08-26T02:31:35.538Z,100437.75
2022-08-26T02:34:15.688Z,100448.25
2022-08-26T02:36:43.515Z,100448.22
2022-08-26T02:39:16.956Z,100442.13
2022-08-26T02:41:50.294Z,100437.75
2022-08-26T02:44:18.878Z,100436.03
2022-08-26T02:46:47.220Z,100438.63
2022-08-26T02:49:17.045Z,100443.00
2022-08-26T02:51:44.837Z,100453.44
2022-08-26T02:54:12.955Z,100436.00
2022-08-26T02:56:41.040Z,100450.84
2022-08-26T02:59:09.667Z,100449.97
2022-08-26T03:01:37.253Z,100453.47
2022-08-26T03:04:07.564Z,100449.09
2022-08-26T03:06:43.907Z,100442.09
2022-08-26T03:09:21.283Z,100449.06
2022-08-26T03:11:52.050Z,100456.91
2022-08-26T03:14:20.690Z,100441.19
2022-08-26T03:19:18.943Z,100443.78
2022-08-26T03:21:47.195Z,100453.38
2022-08-26T03:24:17.636Z,100455.13
2022-08-26T03:26:52.131Z,100460.34
2022-08-26T03:29:40.270Z,100455.13
2022-08-26T03:32:08.962Z,100452.50
2022-08-26T03:34:37.317Z,100455.13
2022-08-26T03:37:06.224Z,100449.88
2022-08-26T03:39:33.959Z,100459.47
2022-08-26T03:42:01.903Z,100457.75
2022-08-26T03:44:29.417Z,100451.66
2022-08-26T03:46:59.662Z,100456.84
2022-08-26T03:49:36.979Z,100449.81
2022-08-26T03:52:05.339Z,100447.16
2022-08-26T03:54:33.788Z,100459.34
2022-08-26T03:57:01.514Z,100443.63
2022-08-26T03:59:29.014Z,100447.03
2022-08-26T04:01:56.667Z,100453.16
2022-08-26T04:04:26.634Z,100454.81
2022-08-26T04:06:58.922Z,100456.53
2022-08-26T04:09:27.695Z,100458.25
2022-08-26T04:11:58.784Z,100459.03
2022-08-26T04:14:27.778Z,100466.00
2022-08-26T04:16:56.331Z,100466.81
2022-08-26T04:19:25.558Z,100464.13
2022-08-26T04:21:53.995Z,100464.06
2022-08-26T04:24:24.176Z,100475.31
2022-08-26T04:26:57.990Z,100472.59
2022-08-26T04:29:26.956Z,100464.69
2022-08-26T04:31:56.006Z,100464.63
2022-08-26T04:34:27.235Z,100472.41
2022-08-26T04:36:57.902Z,100466.22
2022-08-26T04:39:27.636Z,100472.19
2022-08-26T04:41:57.916Z,100472.00
2022-08-26T04:44:29.823Z,100478.81
2022-08-26T04:46:58.945Z,100479.53
2022-08-26T04:49:27.678Z,100467.13
2022-08-26T04:51:55.382Z,100466.84
2022-08-26T04:54:25.272Z,100463.97
2022-08-26T04:56:53.005Z,100465.47
2022-08-26T04:59:20.590Z,100474.84
2022-08-26T05:01:54.125Z,100480.56
2022-08-26T05:04:28.769Z,100472.47
2022-08-26T05:07:02.478Z,100471.25
2022-08-26T05:09:37.448Z,100476.22
2022-08-26T05:12:17.197Z,100471.53
2022-08-26T05:15:00.355Z,100466.91
2022-08-26T05:17:31.614Z,100476.19
2022-08-26T05:20:00.798Z,100470.63
2022-08-26T05:22:29.104Z,100467.66
2022-08-26T05:24:56.802Z,100476.03
2022-08-26T05:27:25.065Z,100472.13
2022-08-26T05:29:58.940Z,100479.63
2022-08-26T05:32:27.964Z,100472.19
2022-08-26T05:34:57.530Z,100478.88
2022-08-26T05:37:27.023Z,100484.63
2022-08-26T05:39:55.707Z,100478.91
2022-08-26T05:42:25.049Z,100486.25
2022-08-26T05:44:55.956Z,100489.38
2022-08-26T05:47:25.397Z,100484.50
2022-08-26T05:49:54.122Z,100481.22
2022-08-26T05:52:24.583Z,100475.44
2022-08-26T05:54:53.970Z,100472.44
2022-08-26T05:57:23.121Z,100473.53
2022-08-26T05:59:51.861Z,100472.22
2022-08-26T06:02:20.349Z,100470.78
2022-08-26T06:04:48.250Z,100454.66
2022-08-26T06:07:17.055Z,100472.44
2022-08-26T06:09:46.115Z,100460.50
2022-08-26T06:12:13.671Z,100473.75
2022-08-26T06:14:42.651Z,100467.78
2022-08-26T06:17:13.219Z,100482.09
2022-08-26T06:19:41.366Z,100469.31
2022-08-26T06:22:31.758Z,100466.03
2022-08-26T06:25:17.701Z,100476.34
2022-08-26T06:27:45.349Z,100460.06
2022-08-26T06:30:13.252Z,100474.16
2022-08-26T06:32:41.079Z,100479.28
2022-08-26T06:35:12.422Z,100471.31
2022-08-26T06:37:41.170Z,100477.59
2022-08-26T06:40:09.552Z,100487.53
2022-08-26T06:42:39.337Z,100479.41
2022-08-26T06:45:07.433Z,100481.19
2022-08-26T06:47:36.370Z,100464.41
2022-08-26T06:50:04.065Z,100476.81
2022-08-26T06:52:37.615Z,100463.66
2022-08-26T06:55:18.215Z,100470.66
2022-08-26T06:57:46.075Z,100470.81
2022-08-26T07:00:15.476Z,100483.41
2022-08-26T07:02:46.868Z,100471.69
2022-08-26T07:05:14.647Z,100472.59
2022-08-26T07:07:42.152Z,100475.34
2022-08-26T07:10:10.840Z,100470.00
2022-08-26T07:12:39.006Z,100461.63
2022-08-26T07:15:12.538Z,100469.66
2022-08-26T07:17:40.220Z,100468.09
2022-08-26T07:20:09.362Z,100468.50
2022-08-26T07:22:37.263Z,100464.97
2022-08-26T07:25:09.497Z,100469.00
2022-08-26T07:27:38.966Z,100479.53
2022-08-26T07:30:07.966Z,100474.94
2022-08-26T07:32:35.550Z,100476.41
2022-08-26T07:35:03.611Z,100465.91
2022-08-26T07:37:35.415Z,100473.81
2022-08-26T07:40:06.425Z,100467.28
2022-08-26T07:42:34.543Z,100472.34
2022-08-26T07:45:02.340Z,100471.38
2022-08-26T07:47:32.838Z,100467.63
2022-08-26T07:50:02.860Z,100464.84
2022-08-26T07:52:34.494Z,100463.75
2022-08-26T07:55:03.025Z,100466.94
2022-08-26T07:57:31.386Z,100461.06
2022-08-26T07:59:59.577Z,100461.84
2022-08-26T08:02:28.876Z,100469.34
2022-08-26T08:04:58.026Z,100456.22
2022-08-26T08:07:44.317Z,100470.00
2022-08-26T08:10:16.554Z,100472.28
2022-08-26T08:12:45.086Z,100453.19
2022-08-26T08:15:14.230Z,100463.25
2022-08-26T08:17:46.353Z,100464.22
2022-08-26T08:20:19.431Z,100462.81
2022-08-26T08:22:47.748Z,100450.84
2022-08-26T08:25:15.336Z,100454.22
2022-08-26T08:27:45.283Z,100456.63
2022-08-26T08:30:14.080Z,100453.00
2022-08-26T08:32:43.809Z,100447.25
2022-08-26T08:35:15.311Z,100449.28
2022-08-26T08:37:46.213Z,100445.16
2022-08-26T08:40:19.161Z,100455.47
2022-08-26T08:42:54.861Z,100443.78
2022-08-26T08:45:35.899Z,100459.69
2022-08-26T08:48:27.634Z,100457.47
2022-08-26T08:51:18.163Z,100450.59
2022-08-26T08:53:49.689Z,100448.78
2022-08-26T08:56:31.510Z,100445.31
2022-08-26T08:59:20.378Z,100447.03
2022-08-26T09:02:06.518Z,100449.94
2022-08-26T09:04:45.845Z,100456.22
2022-08-26T09:07:36.974Z,100439.38
2022-08-26T09:10:23.390Z,100443.75
2022-08-26T09:12:52.699Z,100449.59
2022-08-26T09:15:57.978Z,100456.06
2022-08-26T09:18:50.711Z,100440.53
2022-08-26T09:21:20.229Z,100439.53
2022-08-26T09:23:52.382Z,100447.56
2022-08-26T09:26:41.018Z,100435.94
2022-08-26T09:29:15.603Z,100434.69
2022-08-26T09:31:43.263Z,100437.75
2022-08-26T09:34:17.473Z,100442.94
2022-08-26T09:36:55.788Z,100439.03
2022-08-26T09:39:37.882Z,100418.38
2022-08-26T09:42:12.371Z,100439.47
2022-08-26T09:44:59.651Z,100432.22
2022-08-26T09:47:31.647Z,100436.16
2022-08-26T09:50:12.370Z,100432.94
2022-08-26T09:52:42.690Z,100427.16
2022-08-26T09:55:13.992Z,100428.00
2022-08-26T09:57:46.099Z,100437.72
2022-08-26T10:00:40.640Z,100422.69
2022-08-26T10:03:15.530Z,100427.53
2022-08-26T10:05:55.119Z,100424.44
2022-08-26T10:08:38.974Z,100433.53
2022-08-26T10:11:30.616Z,100425.66
2022-08-26T10:14:08.108Z,100422.91
2022-08-26T10:17:02.416Z,100423.31
2022-08-26T10:19:55.568Z,100422.22
2022-08-26T10:22:54.626Z,100416.69
2022-08-26T10:25:28.548Z,100415.72
2022-08-26T10:28:02.448Z,100408.84
2022-08-26T10:30:40.029Z,100412.84
2022-08-26T10:33:18.623Z,100408.38
2022-08-26T10:35:59.987Z,100409.97
2022-08-26T10:38:37.647Z,100410.44
2022-08-26T10:41:15.863Z,100405.41
2022-08-26T10:43:53.206Z,100407.03
2022-08-26T10:46:27.190Z,100408.31
2022-08-26T10:49:08.604Z,100400.19
2022-08-26T10:52:12.473Z,100407.75
2022-08-26T10:54:48.401Z,100401.56
2022-08-26T10:57:33.252Z,100385.97
2022-08-26T11:00:27.546Z,100389.69
2022-08-26T11:03:22.465Z,100395.97
2022-08-26T11:06:16.705Z,100389.63
2022-08-26T11:08:50.086Z,100398.75
2022-08-26T11:11:50.890Z,100392.28
2022-08-26T11:14:29.332Z,100388.13
2022-08-26T11:16:59.842Z,100378.47
2022-08-26T11:19:59.347Z,100381.88
2022-08-26T11:22:38.160Z,100369.47
2022-08-26T11:25:19.762Z,100367.53
2022-08-26T11:27:56.936Z,100367.53
2022-08-26T11:30:25.276Z,100365.34
2022-08-26T11:32:57.365Z,100369.66
2022-08-26T11:35:24.865Z,100355.97
2022-08-26T11:37:59.192Z,100367.88
2022-08-26T11:40:29.909Z,100349.44
2022-08-26T11:43:03.076Z,100361.56
2022-08-26T11:45:59.827Z,100360.38
2022-08-26T11:48:28.322Z,100354.25
2022-08-26T11:51:06.585Z,100354.75
2022-08-26T11:53:38.927Z,100345.56
2022-08-26T11:56:28.774Z,100341.03
2022-08-26T11:59:02.994Z,100347.31
2022-08-26T12:01:36.542Z,100360.75
2022-08-26T12:04:07.740Z,100361.88
2022-08-26T12:06:48.059Z,100350.66
2022-08-26T12:09:34.632Z,100348.09
2022-08-26T12:12:23.908Z,100340.72
2022-08-26T12:15:19.847Z,100344.69
2022-08-26T12:17:54.277Z,100335.47
2022-08-26T12:20:31.086Z,100338.91
2022-08-26T12:23:00.858Z,100337.69
2022-08-26T12:25:36.041Z,100335.34
2022-08-26T12:28:06.167Z,100340.31
2022-08-26T12:30:33.898Z,100336.53
2022-08-26T12:33:22.152Z,100350.66
2022-08-26T12:35:56.261Z,100348.28
2022-08-26T12:38:26.787Z,100336.53
2022-08-26T12:40:54.838Z,100322.91
2022-08-26T12:43:46.024Z,100336.41
2022-08-26T12:46:18.141Z,100332.09
2022-08-26T12:48:49.729Z,100327.97
2022-08-26T12:51:30.241Z,100329.41
2022-08-26T12:53:59.238Z,100330.06
2022-08-26T12:56:29.464Z,100321.31
2022-08-26T12:59:25.157Z,100321.66
2022-08-26T13:01:53.599Z,100315.81
2022-08-26T13:04:40.655Z,100322.28
2022-08-26T13:07:14.320Z,100309.44
2022-08-26T13:09:43.952Z,100305.34
2022-08-26T13:12:11.776Z,100315.94
2022-08-26T13:14:40.573Z,100302.91
2022-08-26T13:17:08.158Z,100292.44
2022-08-26T13:19:35.895Z,100298.22
2022-08-26T13:22:05.262Z,100290.50
2022-08-26T13:24:39.889Z,100291.31
2022-08-26T13:27:10.127Z,100301.63
2022-08-26T13:29:37.868Z,100291.03
2022-08-26T13:32:06.985Z,100285.09
2022-08-26T13:34:36.911Z,100282.09
2022-08-26T13:37:07.463Z,100279.50
2022-08-26T13:39:35.118Z,100279.13
2022-08-26T13:42:02.587Z,100281.66
2022-08-26T13:44:30.134Z,100274.19
2022-08-26T13:46:57.581Z,100276.84
2022-08-26T13:49:34.306Z,100282.72
2022-08-26T13:52:04.256Z,100284.06
2022-08-26T13:54:31.730Z,100272.53
2022-08-26T13:57:02.423Z,100276.75
2022-08-26T13:59:30.016Z,100279.50
2022-08-26T14:01:58.825Z,100268.25
2022-08-26T14:04:27.523Z,100277.31
2022-08-26T14:06:55.122Z,100281.59
2022-08-26T14:09:22.652Z,100272.72
2022-08-26T14:11:54.058Z,100273.47
2022-08-26T14:14:23.177Z,100278.66
2022-08-26T14:16:58.947Z,100277.50
2022-08-26T14:19:30.080Z,100284.09
2022-08-26T14:22:00.789Z,100284.47
2022-08-26T14:24:29.314Z,100285.81
2022-08-26T14:26:56.793Z,100281.16
2022-08-26T14:29:24.476Z,100281.41
2022-08-26T14:31:52.175Z,100286.09
2022-08-26T14:34:19.837Z,100277.66
2022-08-26T14:36:47.317Z,100281.22
2022-08-26T14:39:14.906Z,100274.47
2022-08-26T14:41:53.987Z,100282.34
2022-08-26T14:44:26.343Z,100285.97
2022-08-26T14:46:54.800Z,100289.97
2022-08-26T14:49:24.042Z,100285.97
2022-08-26T14:51:51.613Z,100276.47
2022-08-26T14:54:20.735Z,100279.31
2022-08-26T14:56:50.249Z,100284.91
2022-08-26T14:59:24.637Z,100279.66
2022-08-26T15:01:52.937Z,100287.63
2022-08-26T15:04:20.926Z,100283.44
2022-08-26T15:06:48.777Z,100282.75
2022-08-26T15:09:16.545Z,100270.72
2022-08-26T15:11:44.065Z,100281.34
2022-08-26T15:14:19.171Z,100278.94
2022-08-26T15:16:50.377Z,100281.16
2022-08-26T15:19:18.911Z,100283.13
2022-08-26T15:21:47.543Z,100278.97
2022-08-26T15:24:21.320Z,100281.94
2022-08-26T15:26:49.683Z,100295.25
2022-08-26T15:29:26.659Z,100294.44
2022-08-26T15:31:55.270Z,100289.38
2022-08-26T15:34:30.373Z,100285.28
2022-08-26T15:36:58.105Z,100284.78
2022-08-26T15:39:25.610Z,100291.00
2022-08-26T15:41:53.231Z,100290.25
2022-08-26T15:44:20.818Z,100293.88
2022-08-26T15:46:49.893Z,100297.69
2022-08-26T15:49:18.845Z,100294.56
2022-08-26T15:51:48.151Z,100303.44
2022-08-26T15:54:17.535Z,100298.22
2022-08-26T15:56:45.773Z,100291.31
2022-08-26T15:59:15.844Z,100302.84
2022-08-26T16:01:44.172Z,100299.56
2022-08-26T16:04:12.555Z,100304.91
2022-08-26T16:06:41.254Z,100299.06
2022-08-26T16:09:11.450Z,100298.34
2022-08-26T16:11:39.237Z,100303.66
2022-08-26T16:14:07.264Z,100304.75
2022-08-26T16:16:39.453Z,100295.44
2022-08-26T16:19:08.245Z,100307.81
2022-08-26T16:21:36.250Z,100308.06
2022-08-26T16:24:04.591Z,100303.97
2022-08-26T16:26:34.527Z,100308.66
2022-08-26T16:29:05.305Z,100312.34
2022-08-26T16:31:33.101Z,100306.38
2022-08-26T16:34:00.947Z,100301.34
2022-08-26T16:36:28.465Z,100304.22
2022-08-26T16:38:56.878Z,100307.06
2022-08-26T16:41:27.033Z,100309.75
2022-08-26T16:43:58.105Z,100316.09
2022-08-26T16:46:26.629Z,100314.47
2022-08-26T16:48:56.071Z,100313.72
2022-08-26T16:51:27.209Z,100320.03
2022-08-26T16:53:56.955Z,100323.59
2022-08-26T16:56:33.423Z,100324.69
2022-08-26T16:59:04.347Z,100328.41
2022-08-26T17:01:32.375Z,100322.44
2022-08-26T17:04:00.071Z,100331.28
2022-08-26T17:06:27.688Z,100321.97
2022-08-26T17:08:55.249Z,100322.19
2022-08-26T17:11:22.838Z,100325.69
2022-08-26T17:13:50.406Z,100327.56
2022-08-26T17:16:18.042Z,100332.97
2022-08-26T17:18:45.733Z,100325.13
2022-08-26T17:21:14.354Z,100322.72
2022-08-26T17:23:43.358Z,100326.28
2022-08-26T17:26:12.454Z,100322.88
2022-08-26T17:28:42.925Z,100325.63
2022-08-26T17:31:12.507Z,100324.88
2022-08-26T17:33:40.534Z,100322.31
2022-08-26T17:36:10.081Z,100322.38
2022-08-26T17:38:38.272Z,100321.50
2022-08-26T17:41:10.858Z,100317.16
2022-08-26T17:43:39.278Z,100319.06
2022-08-26T17:46:08.593Z,100326.19
2022-08-26T17:48:38.177Z,100320.13
2022-08-26T17:51:27.197Z,100322.72
2022-08-26T17:53:55.154Z,100318.47
2022-08-26T17:56:27.179Z,100324.56
2022-08-26T17:58:58.037Z,100320.28
2022-08-26T18:01:32.329Z,100318.56
2022-08-26T18:04:01.019Z,100312.50
2022-08-26T18:06:30.483Z,100318.81
2022-08-26T18:08:59.543Z,100304.22
2022-08-26T18:11:28.093Z,100322.75
2022-08-26T18:13:55.704Z,100314.25
2022-08-26T18:16:27.534Z,100317.88
2022-08-26T18:18:55.686Z,100317.25
2022-08-26T18:21:25.730Z,100310.38
2022-08-26T18:23:56.586Z,100312.28
2022-08-26T18:26:31.206Z,100314.16
2022-08-26T18:28:59.567Z,100315.16
2022-08-26T18:31:27.599Z,100313.63
2022-08-26T18:33:55.382Z,100314.53
2022-08-26T18:36:28.945Z,100317.25
2022-08-26T18:38:57.574Z,100314.00
2022-08-26T18:41:28.813Z,100314.16
2022-08-26T18:43:57.030Z,100311.69
2022-08-26T18:46:28.985Z,100338.91
2022-08-26T18:48:57.748Z,100337.28
2022-08-26T18:51:31.635Z,100336.50
2022-08-26T18:54:00.965Z,100333.94
2022-08-26T18:56:29.176Z,100345.34
2022-08-26T18:58:56.767Z,100341.09
2022-08-26T19:01:27.382Z,100334.28
2022-08-26T19:03:57.498Z,100332.66
2022-08-26T19:06:26.847Z,100339.69
2022-08-26T19:08:55.727Z,100331.06
2022-08-26T19:11:32.295Z,100349.50
2022-08-26T19:14:13.724Z,100351.22
2022-08-26T19:16:47.543Z,100352.22
2022-08-26T19:19:16.492Z,100353.22
2022-08-26T19:21:44.250Z,100348.09
2022-08-26T19:24:15.586Z,100354.28
2022-08-26T19:26:48.241Z,100353.47
2022-08-26T19:31:47.914Z,100357.94
2022-08-26T19:34:20.749Z,100338.00
2022-08-26T19:36:49.807Z,100345.97
2022-08-26T19:39:17.379Z,100350.31
2022-08-26T19:41:45.110Z,100342.63
2022-08-26T19:44:37.248Z,100373.94
2022-08-26T19:47:06.699Z,100375.72
2022-08-26T19:49:35.054Z,100375.75
2022-08-26T19:52:03.215Z,100367.00
2022-08-26T19:54:30.982Z,100373.09
2022-08-26T19:56:58.539Z,100366.13
2022-08-26T19:59:26.120Z,100379.19
2022-08-26T20:02:01.476Z,100356.50
2022-08-26T20:04:32.990Z,100387.06
2022-08-26T20:07:02.223Z,100381.00
2022-08-26T20:09:30.658Z,100372.31
2022-08-26T20:11:58.531Z,100368.94
2022-08-26T20:14:27.978Z,100393.41
2022-08-26T20:16:56.038Z,100391.72
2022-08-26T20:19:44.819Z,100382.25
2022-08-26T20:22:12.997Z,100404.19
2022-08-26T20:24:41.079Z,100388.47
2022-08-26T20:27:09.732Z,100370.22
2022-08-26T20:29:40.534Z,100395.50
2022-08-26T20:32:08.269Z,100388.59
2022-08-26T20:34:36.705Z,100387.75
2022-08-26T20:37:05.139Z,100379.94
2022-08-26T20:39:32.884Z,100399.13
2022-08-26T20:42:04.412Z,100398.28
2022-08-26T20:44:34.228Z,100395.72
2022-08-26T20:47:01.968Z,100395.75
2022-08-26T20:49:32.730Z,100401.06
2022-08-26T20:52:07.908Z,100391.56
2022-08-26T20:54:35.361Z,100409.09
2022-08-26T20:57:03.460Z,100410.84
2022-08-26T20:59:36.550Z,100396.00
2022-08-26T21:02:04.243Z,100397.84
2022-08-26T21:04:31.936Z,100409.16
2022-08-26T21:06:59.510Z,100417.09
2022-08-26T21:09:28.107Z,100401.38
2022-08-26T21:11:57.400Z,100402.25
2022-08-26T21:14:27.432Z,100401.44
2022-08-26T21:17:01.103Z,100410.25
2022-08-26T21:19:28.872Z,100392.81
2022-08-26T21:21:56.329Z,100400.72
2022-08-26T21:24:23.813Z,100395.53
2022-08-26T21:26:51.420Z,100399.91
2022-08-26T21:29:19.108Z,100386.84
2022-08-26T21:31:47.049Z,100396.47
2022-08-26T21:34:17.978Z,100389.50
2022-08-26T21:36:49.043Z,100405.28
2022-08-26T21:39:17.204Z,100400.06
2022-08-26T21:41:45.934Z,100390.50
2022-08-26T21:44:15.690Z,100384.41
2022-08-26T21:46:44.728Z,100400.03
2022-08-26T21:49:15.997Z,100393.19
2022-08-26T21:51:48.321Z,100407.97
2022-08-26T21:54:16.537Z,100413.22
2022-08-26T21:56:47.109Z,100411.47
2022-08-26T21:59:17.281Z,100406.25
2022-08-26T22:01:45.287Z,100378.44
2022-08-26T22:04:16.241Z,100395.88
2022-08-26T22:07:10.394Z,100416.78
2022-08-26T22:09:37.955Z,100385.47
2022-08-26T22:12:18.426Z,100403.75
2022-08-26T22:14:49.368Z,100411.66
2022-08-26T22:17:17.118Z,100390.75
2022-08-26T22:19:46.223Z,100412.56
2022-08-26T22:22:14.665Z,100411.69
2022-08-26T22:24:43.385Z,100411.69
2022-08-26T22:27:12.080Z,100416.03
2022-08-26T22:29:39.857Z,100412.63
2022-08-26T22:32:07.442Z,100408.22
2022-08-26T22:34:37.582Z,100395.16
2022-08-26T22:37:05.885Z,100405.59
2022-08-26T22:39:34.286Z,100402.97
2022-08-26T22:42:03.748Z,100395.13
2022-08-26T22:44:32.276Z,100407.34
2022-08-26T22:47:02.798Z,100395.16
2022-08-26T22:49:30.333Z,100393.44
2022-08-26T22:52:00.594Z,100386.50
2022-08-26T22:54:28.254Z,100391.75
2022-08-26T22:56:56.018Z,100396.94
2022-08-26T22:59:23.587Z,100382.13
2022-08-26T23:01:51.699Z,100384.75
2022-08-26T23:04:19.455Z,100376.94
2022-08-26T23:06:47.578Z,100400.47
2022-08-26T23:09:18.229Z,100383.03
2022-08-26T23:11:47.903Z,100397.00
2022-08-26T23:14:17.091Z,100400.47
2022-08-26T23:16:45.125Z,100385.75
2022-08-26T23:19:14.498Z,100399.66
2022-08-26T23:21:42.106Z,100397.94
2022-08-26T23:24:10.688Z,100393.63
2022-08-26T23:26:40.577Z,100403.22
2022-08-26T23:29:10.931Z,100404.09
2022-08-26T23:31:40.572Z,100407.63
2022-08-26T23:34:26.648Z,100405.88
2022-08-26T23:37:00.252Z,100404.13
2022-08-26T23:39:33.529Z,100407.66
2022-08-26T23:42:01.852Z,100382.38
2022-08-26T23:44:30.965Z,100405.06
2022-08-26T23:46:59.473Z,100398.97
2022-08-26T23:49:28.112Z,100387.69
2022-08-26T23:52:14.339Z,100404.22
2022-08-26T23:54:42.325Z,100403.38
2022-08-26T23:57:10.063Z,100401.63
2022-08-26T23:59:40.249Z,100392.06
